Royse City, TX (75189)

3:41 PM CDT on August 30, 2015 (GMT -0500)
McKamy Meadows | | Change Station
CLOSE
Current Station
Personal Weather Station
Location: Royse City, TX
Elevation: 553 ft
Nearby Weather Stations

Elev 553 ft 32.97 °N, 96.34 °W | Updated 17 seconds ago

Partly Cloudy
Partly Cloudy
95.7 °F
Feels Like 96 °F
N
3.5
Wind Variable Wind from WSW
Gusts 3.5 mph

Today
High -- | Low -- °F
--% Chance of Precip.
Yesterday
High -- | Low -- °F
Precip. -- in
6:58 AM 7:52 PM
Full, 98% visible
Pressure 29.95 in
Visibility 10.0 miles
Clouds Scattered Clouds 11000 ft
Heat Index 96 °F
Dew Point 60 °F
Humidity 31%
Rainfall 0.00 in
Snow Depth Not available.
UV 6 out of 12
Pollen 8.70 out of 12
Air Quality Not available.
Flu Activity Not available.
METAR KF46 302035Z AUTO 22006KT 10SM SCT110 34/17 A2995 RMK AO2 T03380169
Pressure 29.95 in
Visibility 10.0 miles
Clouds Scattered Clouds 11000 ft
Heat Index 96 °F
Dew Point 60 °F
Humidity 31%
Rainfall 0.00 in
Snow Depth Not available.
UV 6 out of 12
Pollen 8.70 out of 12
Air Quality Not available.
Flu Activity Not available.
METAR KF46 302035Z AUTO 22006KT 10SM SCT110 34/17 A2995 RMK AO2 T03380169
Nowcast | as of 3:16 PM CDT on August 30, 2015

Showers and thunderstorms will continue to develop the remainder of the afternoon. The bulk of the activity will be south of the I-20 corridor. The strongest storms will be capable of heavy rain...small hail...and wind gusts in excess of 40 mph. Those engaged in outdoor activities should keep abreast of the weather. Move indoors immediately if lightning is seen or thunder is heard.

×

10-Day Weather Forecast

×

Almanac

Astronomy

Aug. 30, 2015 Rise Set
Actual Time
Civil Twilight
Nautical Twilight
Astronomical Twilight
Moon
Length of Visible Light
Length of Day
Tomorrow will be .
, % of the Moon is Illuminated

Today's Extremes

State Highs State Lows

Community

WunderPhotos

Upload Photos

1,851,057 photos uploaded!

WunderBlogs® & News

Nearby

Air Quality

  Air Quality AQ Index Pollutant
Not available.

Snow Depth

Station Depth Elevation

Earthquake Activity

City Distance Mag. Time & Date
Minimum magnitude displayed is 2.5.

Coastal Water Temperatures

Place Temperature

Stations

Nearby Weather Stations

Station Location Temp. Windchill Dew Point Humidity Wind Precip. Elev Updated Type